Hornblower Esprit — WDH8905 — position and weather

sailwx.info

Track history (hours):
 
Tides and Currents Weather Stations Pressure Air Temp Water Temp Dewpoint Dewpoint Depression Visibility Wind Speed Wind Dir Waves Ship Positions

Hornblower Esprit

Owner: Hornblower Cruises, New York, LLC., New York, NY. More information available from US FCC via Universal Licensing System and Coast Guard Vessel Documentation Center.

Last reported at 2018-Apr-21 22:18 UTC. Time now 2018-Apr-22 18:14 UTC.
Position N 40°42' W 074°00'.

Length 23 m; draft 2 m.

Type: Passenger vessel. MMSI: 367662670.

Date/timePositionNaut miles runAvg speedWind from/ knotsBaromVisibWave heightAir tempDewpointWater temp
2018-Apr-21 22:18N 40°42' W 074°00'0 1.2
2018-Apr-21 22:00N 40°42' W 074°00'2 3.3
2018-Apr-21 21:30N 40°43' W 074°02'1 1.3
2018-Apr-21 21:00N 40°43' W 074°02'1 2.5
2018-Apr-21 20:30N 40°44' W 074°01'0 0.0
2018-Apr-21 20:00N 40°44' W 074°01'0 0.0
2018-Apr-21 19:30N 40°44' W 074°01'0 0.0
2018-Apr-21 19:00N 40°44' W 074°01'1 1.5
2018-Apr-21 18:30N 40°43' W 074°01'2 4.3
2018-Apr-21 18:00N 40°41' W 074°02'2 4.1
2018-Apr-21 17:30N 40°42' W 074°00'1 2.5
2018-Apr-21 17:00N 40°43' W 074°01'3 5.6
2018-Apr-21 16:30N 40°46' W 074°00'2 4.0
2018-Apr-21 16:00N 40°44' W 074°01'0 0.0
2018-Apr-21 15:30N 40°44' W 074°01'0 0.0
2018-Apr-21 15:00N 40°44' W 074°01'0 0.0
2018-Apr-21 14:30N 40°44' W 074°01'0 0.0
2018-Apr-21 14:00N 40°44' W 074°01'0 0.0
2018-Apr-21 02:07N 40°44' W 074°01'0 0.0
2018-Apr-21 02:00N 40°44' W 074°01'1 2.8
2018-Apr-21 01:30N 40°43' W 074°01'2 3.1
2018-Apr-21 01:00N 40°41' W 074°02'2 4.2
2018-Apr-21 00:30N 40°42' W 073°60'1 2.8
2018-Apr-21 00:00N 40°43' W 074°01'2 4.1
2018-Apr-20 23:30N 40°45' W 074°01'1 2.8
2018-Apr-20 23:00N 40°44' W 074°01'0 0.0
2018-Apr-20 22:30N 40°44' W 074°01'0 0.0
2018-Apr-20 22:00N 40°44' W 074°01'0 0.0
2018-Apr-20 16:07N 40°44' W 074°01'0 0.2
2018-Apr-20 15:59N 40°44' W 074°01'2 3.3
2018-Apr-20 15:30N 40°42' W 074°00'0 0.0
2018-Apr-20 15:00N 40°42' W 074°00'0 0.0
2018-Apr-20 14:12N 40°42' W 074°00'0 0.0
2018-Apr-20 14:00N 40°42' W 074°00'0 0.0
2018-Apr-20 13:30N 40°42' W 074°00'0 0.0
2018-Apr-20 13:00N 40°42' W 074°00'0 0.0
2018-Apr-20 12:30N 40°42' W 074°00'0 0.0
2018-Apr-20 12:00N 40°42' W 074°00'0 0.0
2018-Apr-20 11:28N 40°42' W 074°00'0 0.0
2018-Apr-20 11:00N 40°42' W 074°00'0 0.0
2018-Apr-20 10:30N 40°42' W 074°00'0 0.0
2018-Apr-20 10:00N 40°42' W 074°00'0 0.0
2018-Apr-20 09:30N 40°42' W 074°00'0 0.0
2018-Apr-20 09:00N 40°42' W 074°00'0 0.0
2018-Apr-20 08:30N 40°42' W 074°00'0 0.0
2018-Apr-20 08:00N 40°42' W 074°00'0 0.0
2018-Apr-20 07:30N 40°42' W 074°00'0 0.0
2018-Apr-20 07:00N 40°42' W 074°00'0 0.0
2018-Apr-20 06:30N 40°42' W 074°00'0 0.0
2018-Apr-20 06:00N 40°42' W 074°00'0 0.0
2018-Apr-20 05:30N 40°42' W 074°00'0 0.0
2018-Apr-20 05:00N 40°42' W 074°00'0 0.0
2018-Apr-20 04:30N 40°42' W 074°00'0 0.0
2018-Apr-20 04:00N 40°42' W 074°00'0 0.0
2018-Apr-20 03:30N 40°42' W 074°00'0 0.0
2018-Apr-20 03:00N 40°42' W 074°00'0 0.0
2018-Apr-20 02:30N 40°42' W 074°00'0 0.0
2018-Apr-20 02:00N 40°42' W 074°00'0 0.0
2018-Apr-20 01:30N 40°42' W 074°00'0 0.0
2018-Apr-20 01:00N 40°42' W 074°00'0 0.0
2018-Apr-20 00:30N 40°42' W 074°00'0 0.0
2018-Apr-20 00:00N 40°42' W 074°00'0 0.0
2018-Apr-19 23:30N 40°42' W 074°00'0 0.0
2018-Apr-19 23:00N 40°42' W 074°00'0 0.0
2018-Apr-19 22:30N 40°42' W 074°00'0 0.0
2018-Apr-19 22:00N 40°42' W 074°00'0 0.0
2018-Apr-19 21:30N 40°42' W 074°00'0 0.0
2018-Apr-19 21:00N 40°42' W 074°00'0 0.0
2018-Apr-19 20:30N 40°42' W 074°00'0 0.0
2018-Apr-19 20:00N 40°42' W 074°00'0 0.0
2018-Apr-19 19:29N 40°42' W 074°00'0 0.0
2018-Apr-19 19:00N 40°42' W 074°00'0 0.0
2018-Apr-19 18:30N 40°42' W 074°00'0 0.0
2018-Apr-19 18:00N 40°42' W 074°00'0 0.0
2018-Apr-19 17:30N 40°42' W 074°00'0 0.0
2018-Apr-19 17:00N 40°42' W 074°00'0 0.0
2018-Apr-19 16:30N 40°42' W 074°00'0 0.0
2018-Apr-19 16:00N 40°42' W 074°00'0 0.0
2018-Apr-19 15:30N 40°42' W 074°00'0 0.0
2018-Apr-19 15:00N 40°42' W 074°00'0 0.0
2018-Apr-19 14:30N 40°42' W 074°00'0 0.0
2018-Apr-19 14:00N 40°42' W 074°00'0 0.0
2018-Apr-19 13:29N 40°42' W 074°00'0 0.0
2018-Apr-19 13:00N 40°42' W 074°00'0 0.0
2018-Apr-19 12:30N 40°42' W 074°00'0 0.0
2018-Apr-19 12:00N 40°42' W 074°00'0 0.0
2018-Apr-19 11:30N 40°42' W 074°00'0 0.0
2018-Apr-19 11:00N 40°42' W 074°00'0 0.0
2018-Apr-19 10:30N 40°42' W 074°00'0 0.0
2018-Apr-19 10:00N 40°42' W 074°00'0 0.0
2018-Apr-19 09:30N 40°42' W 074°00'0 0.0
2018-Apr-19 09:00N 40°42' W 074°00'0 0.0
2018-Apr-19 08:30N 40°42' W 074°00'0 0.0
2018-Apr-19 08:00N 40°42' W 074°00'0 0.0
2018-Apr-19 07:30N 40°42' W 074°00'0 0.0
2018-Apr-19 07:00N 40°42' W 074°00'0 0.0
2018-Apr-19 06:30N 40°42' W 074°00'0 0.0
2018-Apr-19 06:00N 40°42' W 074°00'0 0.0
2018-Apr-19 05:30N 40°42' W 074°00'0 0.0
2018-Apr-19 05:00N 40°42' W 074°00'0 0.0
2018-Apr-19 04:30N 40°42' W 074°00'0 0.0
2018-Apr-19 04:00N 40°42' W 074°00'0 0.0
2018-Apr-19 03:30N 40°42' W 074°00'0 0.0
2018-Apr-19 03:00N 40°42' W 074°00'0 0.0
2018-Apr-19 02:30N 40°42' W 074°00'0 0.0
2018-Apr-19 01:59N 40°42' W 074°00'0 0.0
2018-Apr-19 01:28N 40°42' W 074°00'0 0.0
2018-Apr-19 01:00N 40°42' W 074°00'0 0.0
2018-Apr-19 00:30N 40°42' W 074°00'0 0.0
2018-Apr-19 00:00N 40°42' W 074°00'0 0.0
2018-Apr-18 23:30N 40°42' W 074°00'0 0.0
2018-Apr-18 23:00N 40°42' W 074°00'0 0.0
2018-Apr-18 22:30N 40°42' W 074°00'0 0.0
2018-Apr-18 22:00N 40°42' W 074°00'0 0.0
2018-Apr-18 21:30N 40°42' W 074°00'0 0.0
2018-Apr-18 21:00N 40°42' W 074°00'1 1.8
2018-Apr-18 20:30N 40°43' W 074°01'1 0.0
2018-Apr-17 15:53N 40°44' W 074°01'1 2.2
2018-Apr-17 15:30N 40°43' W 074°01'2 3.5
2018-Apr-17 15:00N 40°42' W 074°02'2 3.8
2018-Apr-17 14:30N 40°42' W 073°60'2 3.7
2018-Apr-17 14:00N 40°44' W 074°01'0 0.5
2018-Apr-17 13:30N 40°44' W 074°01'0 0.0
2018-Apr-17 13:00N 40°44' W 074°01'0 0.0
2018-Apr-17 12:30N 40°44' W 074°01'0 0.0
2018-Apr-17 12:00N 40°44' W 074°01'0 0.0
2018-Apr-17 11:30N 40°44' W 074°01'0 0.0
2018-Apr-17 01:44N 40°44' W 074°01'0 0.6
2018-Apr-17 01:31N 40°44' W 074°01'3 5.1
2018-Apr-17 01:00N 40°42' W 074°02'3 5.2
2018-Apr-17 00:30N 40°43' W 073°59'0 0.7
2018-Apr-17 00:01N 40°42' W 073°59'2 4.4
2018-Apr-16 23:30N 40°44' W 074°01'0 0.4
2018-Apr-16 23:00N 40°44' W 074°01'0 0.0
2018-Apr-16 22:31N 40°44' W 074°01'0 0.0
2018-Apr-16 22:00N 40°44' W 074°01'0 0.0
2018-Apr-16 21:30N 40°44' W 074°01'0 0.0
2018-Apr-16 21:00N 40°44' W 074°01'0 0.0
2018-Apr-15 03:55N 40°44' W 074°01'0 0.0
2018-Apr-15 03:29N 40°44' W 074°01'1 2.5
2018-Apr-15 03:00N 40°43' W 074°01'1 2.1
2018-Apr-15 02:30N 40°42' W 074°02'2 4.8
2018-Apr-15 02:01N 40°43' W 073°59'0 0.5
2018-Apr-15 01:30N 40°42' W 073°59'2 3.8
2018-Apr-15 01:00N 40°44' W 074°01'2 4.0
2018-Apr-15 00:30N 40°46' W 074°01'2 3.7
2018-Apr-15 00:00N 40°44' W 074°01'0 0.0
2018-Apr-14 23:30N 40°44' W 074°01'0 0.0
2018-Apr-14 23:00N 40°44' W 074°01'0 0.0
2018-Apr-14 22:30N 40°44' W 074°01'0 0.0
2018-Apr-14 22:00N 40°44' W 074°01'0 0.0
2018-Apr-14 21:30N 40°44' W 074°01'0 0.0
2018-Apr-14 21:00N 40°44' W 074°01'0 0.0
2018-Apr-14 20:30N 40°44' W 074°01'0 0.0
2018-Apr-14 20:00N 40°44' W 074°01'0 0.0
2018-Apr-14 01:58N 40°44' W 074°01'0 1.0
2018-Apr-14 01:30N 40°44' W 074°01'3 5.2
2018-Apr-14 01:00N 40°41' W 074°03'2 4.2
2018-Apr-14 00:31N 40°42' W 074°00'1 1.8
2018-Apr-14 00:00N 40°42' W 074°01'3 5.0
2018-Apr-13 23:30N 40°45' W 074°01'1 1.9
2018-Apr-13 23:00N 40°44' W 074°01'0 0.0
2018-Apr-13 22:31N 40°44' W 074°01'0 0.0
2018-Apr-13 22:01N 40°44' W 074°01'0 0.0
2018-Apr-13 21:30N 40°44' W 074°01'0 0.0
2018-Apr-13 21:01N 40°44' W 074°01'0 0.0
2018-Apr-13 20:30N 40°44' W 074°01'0 0.0
2018-Apr-13 14:55N 40°44' W 074°01'0 0.0
2018-Apr-13 14:30N 40°44' W 074°01'0 0.0
2018-Apr-13 14:00N 40°44' W 074°01'0 0.0
2018-Apr-13 13:30N 40°44' W 074°01'0 0.0
2018-Apr-13 02:57N 40°44' W 074°01'0 0.0
2018-Apr-13 02:30N 40°44' W 074°01'0 0.0
2018-Apr-13 02:00N 40°44' W 074°01'0 0.0
2018-Apr-13 01:30N 40°44' W 074°01'0 0.0
2018-Apr-13 01:00N 40°44' W 074°01'0 0.0
2018-Apr-13 00:30N 40°44' W 074°01'0 0.0
2018-Apr-13 00:00N 40°44' W 074°01'0 0.0
2018-Apr-12 23:30N 40°44' W 074°01'0 0.0
2018-Apr-12 23:00N 40°44' W 074°01'0 0.0
2018-Apr-12 22:30N 40°44' W 074°01'0 0.0
2018-Apr-12 22:00N 40°44' W 074°01'0 0.0
2018-Apr-12 21:30N 40°44' W 074°01'0 0.0
2018-Apr-12 20:59N 40°44' W 074°01'0 0.0
2018-Apr-12 20:30N 40°44' W 074°01'0 0.0
2018-Apr-12 20:00N 40°44' W 074°01'0 0.0
2018-Apr-12 19:30N 40°44' W 074°01'0 0.0
2018-Apr-12 18:30N 40°44' W 074°01'0 0.0
2018-Apr-12 18:00N 40°44' W 074°01'0 0.0
2018-Apr-12 17:30N 40°44' W 074°01'0 0.0
2018-Apr-12 17:00N 40°44' W 074°01'0 0.0
2018-Apr-12 16:30N 40°44' W 074°01'0 0.0
2018-Apr-12 16:00N 40°44' W 074°01'0 0.0
2018-Apr-12 15:30N 40°44' W 074°01'  
Track history (hours):
 
Tides and Currents Weather Stations Pressure Air Temp Water Temp Dewpoint Dewpoint Depression Visibility Wind Speed Wind Dir Waves Ship Positions

Hornblower Esprit

Owner: Hornblower Cruises, New York, LLC., New York, NY. More information available from US FCC via Universal Licensing System and Coast Guard Vessel Documentation Center.

Last reported at 2018-Apr-21 22:18 UTC. Time now 2018-Apr-22 18:14 UTC.
Position N 40°42' W 074°00'.

Length 23 m; draft 2 m.

Type: Passenger vessel. MMSI: 367662670.

Date/timePositionNaut miles runAvg speedWind from/ knotsBaromVisibWave heightAir tempDewpointWater temp
2018-Apr-21 22:18N 40°42' W 074°00'0 1.2
2018-Apr-21 22:00N 40°42' W 074°00'2 3.3
2018-Apr-21 21:30N 40°43' W 074°02'1 1.3
2018-Apr-21 21:00N 40°43' W 074°02'1 2.5
2018-Apr-21 20:30N 40°44' W 074°01'0 0.0
2018-Apr-21 20:00N 40°44' W 074°01'0 0.0
2018-Apr-21 19:30N 40°44' W 074°01'0 0.0
2018-Apr-21 19:00N 40°44' W 074°01'1 1.5
2018-Apr-21 18:30N 40°43' W 074°01'2 4.3
2018-Apr-21 18:00N 40°41' W 074°02'2 4.1
2018-Apr-21 17:30N 40°42' W 074°00'1 2.5
2018-Apr-21 17:00N 40°43' W 074°01'3 5.6
2018-Apr-21 16:30N 40°46' W 074°00'2 4.0
2018-Apr-21 16:00N 40°44' W 074°01'0 0.0
2018-Apr-21 15:30N 40°44' W 074°01'0 0.0
2018-Apr-21 15:00N 40°44' W 074°01'0 0.0
2018-Apr-21 14:30N 40°44' W 074°01'0 0.0
2018-Apr-21 14:00N 40°44' W 074°01'0 0.0
2018-Apr-21 02:07N 40°44' W 074°01'0 0.0
2018-Apr-21 02:00N 40°44' W 074°01'1 2.8
2018-Apr-21 01:30N 40°43' W 074°01'2 3.1
2018-Apr-21 01:00N 40°41' W 074°02'2 4.2
2018-Apr-21 00:30N 40°42' W 073°60'1 2.8
2018-Apr-21 00:00N 40°43' W 074°01'2 4.1
2018-Apr-20 23:30N 40°45' W 074°01'1 2.8
2018-Apr-20 23:00N 40°44' W 074°01'0 0.0
2018-Apr-20 22:30N 40°44' W 074°01'0 0.0
2018-Apr-20 22:00N 40°44' W 074°01'0 0.0
2018-Apr-20 16:07N 40°44' W 074°01'0 0.2
2018-Apr-20 15:59N 40°44' W 074°01'2 3.3
2018-Apr-20 15:30N 40°42' W 074°00'0 0.0
2018-Apr-20 15:00N 40°42' W 074°00'0 0.0
2018-Apr-20 14:12N 40°42' W 074°00'0 0.0
2018-Apr-20 14:00N 40°42' W 074°00'0 0.0
2018-Apr-20 13:30N 40°42' W 074°00'0 0.0
2018-Apr-20 13:00N 40°42' W 074°00'0 0.0
2018-Apr-20 12:30N 40°42' W 074°00'0 0.0
2018-Apr-20 12:00N 40°42' W 074°00'0 0.0
2018-Apr-20 11:28N 40°42' W 074°00'0 0.0
2018-Apr-20 11:00N 40°42' W 074°00'0 0.0
2018-Apr-20 10:30N 40°42' W 074°00'0 0.0
2018-Apr-20 10:00N 40°42' W 074°00'0 0.0
2018-Apr-20 09:30N 40°42' W 074°00'0 0.0
2018-Apr-20 09:00N 40°42' W 074°00'0 0.0
2018-Apr-20 08:30N 40°42' W 074°00'0 0.0
2018-Apr-20 08:00N 40°42' W 074°00'0 0.0
2018-Apr-20 07:30N 40°42' W 074°00'0 0.0
2018-Apr-20 07:00N 40°42' W 074°00'0 0.0
2018-Apr-20 06:30N 40°42' W 074°00'0 0.0
2018-Apr-20 06:00N 40°42' W 074°00'0 0.0
2018-Apr-20 05:30N 40°42' W 074°00'0 0.0
2018-Apr-20 05:00N 40°42' W 074°00'0 0.0
2018-Apr-20 04:30N 40°42' W 074°00'0 0.0
2018-Apr-20 04:00N 40°42' W 074°00'0 0.0
2018-Apr-20 03:30N 40°42' W 074°00'0 0.0
2018-Apr-20 03:00N 40°42' W 074°00'0 0.0
2018-Apr-20 02:30N 40°42' W 074°00'0 0.0
2018-Apr-20 02:00N 40°42' W 074°00'0 0.0
2018-Apr-20 01:30N 40°42' W 074°00'0 0.0
2018-Apr-20 01:00N 40°42' W 074°00'0 0.0
2018-Apr-20 00:30N 40°42' W 074°00'0 0.0
2018-Apr-20 00:00N 40°42' W 074°00'0 0.0
2018-Apr-19 23:30N 40°42' W 074°00'0 0.0
2018-Apr-19 23:00N 40°42' W 074°00'0 0.0
2018-Apr-19 22:30N 40°42' W 074°00'0 0.0
2018-Apr-19 22:00N 40°42' W 074°00'0 0.0
2018-Apr-19 21:30N 40°42' W 074°00'0 0.0
2018-Apr-19 21:00N 40°42' W 074°00'0 0.0
2018-Apr-19 20:30N 40°42' W 074°00'0 0.0
2018-Apr-19 20:00N 40°42' W 074°00'0 0.0
2018-Apr-19 19:29N 40°42' W 074°00'0 0.0
2018-Apr-19 19:00N 40°42' W 074°00'0 0.0
2018-Apr-19 18:30N 40°42' W 074°00'0 0.0
2018-Apr-19 18:00N 40°42' W 074°00'0 0.0
2018-Apr-19 17:30N 40°42' W 074°00'0 0.0
2018-Apr-19 17:00N 40°42' W 074°00'0 0.0
2018-Apr-19 16:30N 40°42' W 074°00'0 0.0
2018-Apr-19 16:00N 40°42' W 074°00'0 0.0
2018-Apr-19 15:30N 40°42' W 074°00'0 0.0
2018-Apr-19 15:00N 40°42' W 074°00'0 0.0
2018-Apr-19 14:30N 40°42' W 074°00'0 0.0
2018-Apr-19 14:00N 40°42' W 074°00'0 0.0
2018-Apr-19 13:29N 40°42' W 074°00'0 0.0
2018-Apr-19 13:00N 40°42' W 074°00'0 0.0
2018-Apr-19 12:30N 40°42' W 074°00'0 0.0
2018-Apr-19 12:00N 40°42' W 074°00'0 0.0
2018-Apr-19 11:30N 40°42' W 074°00'0 0.0
2018-Apr-19 11:00N 40°42' W 074°00'0 0.0
2018-Apr-19 10:30N 40°42' W 074°00'0 0.0
2018-Apr-19 10:00N 40°42' W 074°00'0 0.0
2018-Apr-19 09:30N 40°42' W 074°00'0 0.0
2018-Apr-19 09:00N 40°42' W 074°00'0 0.0
2018-Apr-19 08:30N 40°42' W 074°00'0 0.0
2018-Apr-19 08:00N 40°42' W 074°00'0 0.0
2018-Apr-19 07:30N 40°42' W 074°00'0 0.0
2018-Apr-19 07:00N 40°42' W 074°00'0 0.0
2018-Apr-19 06:30N 40°42' W 074°00'0 0.0
2018-Apr-19 06:00N 40°42' W 074°00'0 0.0
2018-Apr-19 05:30N 40°42' W 074°00'0 0.0
2018-Apr-19 05:00N 40°42' W 074°00'0 0.0
2018-Apr-19 04:30N 40°42' W 074°00'0 0.0
2018-Apr-19 04:00N 40°42' W 074°00'0 0.0
2018-Apr-19 03:30N 40°42' W 074°00'0 0.0
2018-Apr-19 03:00N 40°42' W 074°00'0 0.0
2018-Apr-19 02:30N 40°42' W 074°00'0 0.0
2018-Apr-19 01:59N 40°42' W 074°00'0 0.0
2018-Apr-19 01:28N 40°42' W 074°00'0 0.0
2018-Apr-19 01:00N 40°42' W 074°00'0 0.0
2018-Apr-19 00:30N 40°42' W 074°00'0 0.0
2018-Apr-19 00:00N 40°42' W 074°00'0 0.0
2018-Apr-18 23:30N 40°42' W 074°00'0 0.0
2018-Apr-18 23:00N 40°42' W 074°00'0 0.0
2018-Apr-18 22:30N 40°42' W 074°00'0 0.0
2018-Apr-18 22:00N 40°42' W 074°00'0 0.0
2018-Apr-18 21:30N 40°42' W 074°00'0 0.0
2018-Apr-18 21:00N 40°42' W 074°00'1 1.8
2018-Apr-18 20:30N 40°43' W 074°01'1 0.0
2018-Apr-17 15:53N 40°44' W 074°01'1 2.2
2018-Apr-17 15:30N 40°43' W 074°01'2 3.5
2018-Apr-17 15:00N 40°42' W 074°02'2 3.8
2018-Apr-17 14:30N 40°42' W 073°60'2 3.7
2018-Apr-17 14:00N 40°44' W 074°01'0 0.5
2018-Apr-17 13:30N 40°44' W 074°01'0 0.0
2018-Apr-17 13:00N 40°44' W 074°01'0 0.0
2018-Apr-17 12:30N 40°44' W 074°01'0 0.0
2018-Apr-17 12:00N 40°44' W 074°01'0 0.0
2018-Apr-17 11:30N 40°44' W 074°01'0 0.0
2018-Apr-17 01:44N 40°44' W 074°01'0 0.6
2018-Apr-17 01:31N 40°44' W 074°01'3 5.1
2018-Apr-17 01:00N 40°42' W 074°02'3 5.2
2018-Apr-17 00:30N 40°43' W 073°59'0 0.7
2018-Apr-17 00:01N 40°42' W 073°59'2 4.4
2018-Apr-16 23:30N 40°44' W 074°01'0 0.4
2018-Apr-16 23:00N 40°44' W 074°01'0 0.0
2018-Apr-16 22:31N 40°44' W 074°01'0 0.0
2018-Apr-16 22:00N 40°44' W 074°01'0 0.0
2018-Apr-16 21:30N 40°44' W 074°01'0 0.0
2018-Apr-16 21:00N 40°44' W 074°01'0 0.0
2018-Apr-15 03:55N 40°44' W 074°01'0 0.0
2018-Apr-15 03:29N 40°44' W 074°01'1 2.5
2018-Apr-15 03:00N 40°43' W 074°01'1 2.1
2018-Apr-15 02:30N 40°42' W 074°02'2 4.8
2018-Apr-15 02:01N 40°43' W 073°59'0 0.5
2018-Apr-15 01:30N 40°42' W 073°59'2 3.8
2018-Apr-15 01:00N 40°44' W 074°01'2 4.0
2018-Apr-15 00:30N 40°46' W 074°01'2 3.7
2018-Apr-15 00:00N 40°44' W 074°01'0 0.0
2018-Apr-14 23:30N 40°44' W 074°01'0 0.0
2018-Apr-14 23:00N 40°44' W 074°01'0 0.0
2018-Apr-14 22:30N 40°44' W 074°01'0 0.0
2018-Apr-14 22:00N 40°44' W 074°01'0 0.0
2018-Apr-14 21:30N 40°44' W 074°01'0 0.0
2018-Apr-14 21:00N 40°44' W 074°01'0 0.0
2018-Apr-14 20:30N 40°44' W 074°01'0 0.0
2018-Apr-14 20:00N 40°44' W 074°01'0 0.0
2018-Apr-14 01:58N 40°44' W 074°01'0 1.0
2018-Apr-14 01:30N 40°44' W 074°01'3 5.2
2018-Apr-14 01:00N 40°41' W 074°03'2 4.2
2018-Apr-14 00:31N 40°42' W 074°00'1 1.8
2018-Apr-14 00:00N 40°42' W 074°01'3 5.0
2018-Apr-13 23:30N 40°45' W 074°01'1 1.9
2018-Apr-13 23:00N 40°44' W 074°01'0 0.0
2018-Apr-13 22:31N 40°44' W 074°01'0 0.0
2018-Apr-13 22:01N 40°44' W 074°01'0 0.0
2018-Apr-13 21:30N 40°44' W 074°01'0 0.0
2018-Apr-13 21:01N 40°44' W 074°01'0 0.0
2018-Apr-13 20:30N 40°44' W 074°01'0 0.0
2018-Apr-13 14:55N 40°44' W 074°01'0 0.0
2018-Apr-13 14:30N 40°44' W 074°01'0 0.0
2018-Apr-13 14:00N 40°44' W 074°01'0 0.0
2018-Apr-13 13:30N 40°44' W 074°01'0 0.0
2018-Apr-13 02:57N 40°44' W 074°01'0 0.0
2018-Apr-13 02:30N 40°44' W 074°01'0 0.0
2018-Apr-13 02:00N 40°44' W 074°01'0 0.0
2018-Apr-13 01:30N 40°44' W 074°01'0 0.0
2018-Apr-13 01:00N 40°44' W 074°01'0 0.0
2018-Apr-13 00:30N 40°44' W 074°01'0 0.0
2018-Apr-13 00:00N 40°44' W 074°01'0 0.0
2018-Apr-12 23:30N 40°44' W 074°01'0 0.0
2018-Apr-12 23:00N 40°44' W 074°01'0 0.0
2018-Apr-12 22:30N 40°44' W 074°01'0 0.0
2018-Apr-12 22:00N 40°44' W 074°01'0 0.0
2018-Apr-12 21:30N 40°44' W 074°01'0 0.0
2018-Apr-12 20:59N 40°44' W 074°01'0 0.0
2018-Apr-12 20:30N 40°44' W 074°01'0 0.0
2018-Apr-12 20:00N 40°44' W 074°01'0 0.0
2018-Apr-12 19:30N 40°44' W 074°01'0 0.0
2018-Apr-12 18:30N 40°44' W 074°01'0 0.0
2018-Apr-12 18:00N 40°44' W 074°01'0 0.0
2018-Apr-12 17:30N 40°44' W 074°01'0 0.0
2018-Apr-12 17:00N 40°44' W 074°01'0 0.0
2018-Apr-12 16:30N 40°44' W 074°01'0 0.0
2018-Apr-12 16:00N 40°44' W 074°01'0 0.0
2018-Apr-12 15:30N 40°44' W 074°01'  

Dump ship's entire track history